Time;durP1;ratioP1;P1;durP2;ratioP2;P2;SDS_P1;SDS_P2;PMS_P1;PMS_P2;Temp;Humidity;BMP_temperature;BMP_pressure;BME280_temperature;BME280_humidity;BME280_pressure;Samples;Min_cycle;Max_cycle;Signal;HPM_P1;HPM_P2
2021/12/14 00:00:52;;;;;;;1999.90;999.90;;;8.00;99.90;;;;;;5011211;28;20053;-64
2021/12/14 00:03:21;;;;;;;1999.90;999.90;;;7.90;99.90;;;;;;5008822;28;20056;-66
2021/12/14 00:05:49;;;;;;;1999.90;999.90;;;7.90;99.90;;;;;;5012389;28;20046;-66
2021/12/14 00:08:16;;;;;;;1999.90;999.90;;;8.00;99.90;;;;;;5006877;28;20481;-65
2021/12/14 00:11:23;;;;;;;1999.90;999.90;;;8.00;99.90;;;;;;5011797;28;20473;-65
2021/12/14 00:13:54;;;;;;;1999.90;999.90;;;8.00;99.90;;;;;;5007041;28;20046;-65
2021/12/14 00:16:21;;;;;;;1999.90;999.90;;;8.00;99.90;;;;;;5009821;28;20064;-65
2021/12/14 00:18:46;;;;;;;1999.90;999.90;;;7.90;99.90;;;;;;5012482;28;20180;-65
2021/12/14 00:21:20;;;;;;;1999.90;999.90;;;8.00;99.90;;;;;;5011119;28;20124;-65
2021/12/14 00:26:44;;;;;;;1999.90;999.90;;;7.90;99.90;;;;;;5012102;28;20141;-65
2021/12/14 00:29:17;;;;;;;1999.90;999.90;;;8.00;99.90;;;;;;5012218;28;20054;-65
2021/12/14 00:31:43;;;;;;;1999.90;999.90;;;8.00;99.90;;;;;;5008820;28;20500;-66
2021/12/14 00:34:09;;;;;;;1999.90;999.90;;;8.00;99.90;;;;;;5026843;28;20054;-67
2021/12/14 00:36:37;;;;;;;1999.90;999.90;;;8.00;99.90;;;;;;4995003;28;20467;-66
2021/12/14 00:39:07;;;;;;;1999.90;999.90;;;7.90;99.90;;;;;;5025670;28;20408;-65
2021/12/14 00:41:37;;;;;;;1999.90;999.90;;;8.00;99.90;;;;;;5006730;28;20582;-66
2021/12/14 00:44:04;;;;;;;1999.90;999.90;;;7.90;99.90;;;;;;5015455;28;20492;-66
2021/12/14 00:46:30;;;;;;;1999.90;999.90;;;7.90;99.90;;;;;;5015118;28;20042;-66
2021/12/14 00:48:56;;;;;;;1999.90;999.90;;;8.00;99.90;;;;;;5013184;28;20049;-65
2021/12/14 00:51:27;;;;;;;1999.90;999.90;;;7.90;99.90;;;;;;4997811;28;20365;-65
2021/12/14 00:53:56;;;;;;;1999.90;999.90;;;7.90;99.90;;;;;;5015917;28;20065;-66
2021/12/14 00:56:22;;;;;;;1999.90;999.90;;;7.90;99.90;;;;;;5025487;28;20406;-65
2021/12/14 00:58:48;;;;;;;1999.90;999.90;;;8.00;99.90;;;;;;4995811;28;20054;-65
2021/12/14 01:01:23;;;;;;;1999.90;999.90;;;7.90;99.90;;;;;;4991703;28;20090;-65
2021/12/14 01:03:54;;;;;;;1999.90;999.90;;;7.80;99.90;;;;;;5007792;28;20133;-65
2021/12/14 01:06:25;;;;;;;1999.90;999.90;;;7.90;99.90;;;;;;4989638;28;20494;-66
2021/12/14 01:08:51;;;;;;;1999.90;999.90;;;7.90;99.90;;;;;;4988151;28;20054;-66
2021/12/14 01:11:31;;;;;;;1999.90;999.90;;;7.90;99.90;;;;;;4957199;29;20091;-66
2021/12/14 01:14:05;;;;;;;1999.90;999.90;;;7.90;99.90;;;;;;4961092;28;20118;-65
2021/12/14 01:16:50;;;;;;;1999.90;999.90;;;7.90;99.90;;;;;;4983262;28;20046;-66
2021/12/14 01:19:24;;;;;;;1999.90;999.90;;;7.90;99.90;;;;;;4994422;28;20038;-66
2021/12/14 01:27:18;;;;;;;1999.90;999.90;;;8.00;99.90;;;;;;5007232;28;20058;-65
2021/12/14 01:29:47;;;;;;;1999.90;999.90;;;8.00;99.90;;;;;;4991031;28;20489;-65
2021/12/14 01:32:13;;;;;;;1999.90;999.90;;;8.00;99.90;;;;;;5025534;28;20047;-66
2021/12/14 01:34:39;;;;;;;1999.90;999.90;;;8.00;99.90;;;;;;4994270;28;20050;-65
2021/12/14 01:37:12;;;;;;;1999.90;999.90;;;8.00;99.90;;;;;;4995571;28;20109;-65
2021/12/14 01:40:00;;;;;;;1999.90;999.90;;;8.00;99.90;;;;;;5026617;28;20077;-65
2021/12/14 01:42:32;;;;;;;1999.90;999.90;;;8.00;99.90;;;;;;4992485;28;20499;-65
2021/12/14 01:45:03;;;;;;;;;;;8.00;99.90;;;;;;4994412;28;20270;-65
2021/12/14 01:47:42;;;;;;;1999.90;999.90;;;8.00;99.90;;;;;;4993116;28;19969;-66
2021/12/14 01:50:35;;;;;;;1999.90;999.90;;;8.00;99.90;;;;;;5008093;28;20078;-65
2021/12/14 01:53:13;;;;;;;1999.90;999.90;;;8.00;99.90;;;;;;5023882;28;20679;-66
2021/12/14 01:55:50;;;;;;;1999.90;999.90;;;8.00;99.90;;;;;;5025531;28;20074;-65
2021/12/14 01:58:17;;;;;;;1999.90;999.90;;;8.00;99.90;;;;;;4990810;28;20049;-66
2021/12/14 02:00:52;;;;;;;1999.90;999.90;;;7.90;99.90;;;;;;5026225;28;20138;-65
2021/12/14 02:03:20;;;;;;;1999.90;999.90;;;7.90;99.90;;;;;;5025233;28;20378;-65
2021/12/14 02:05:50;;;;;;;1999.90;999.90;;;7.90;99.90;;;;;;4994713;28;20531;-66
2021/12/14 02:08:20;;;;;;;1999.90;999.90;;;7.90;99.90;;;;;;4990692;28;20050;-66
2021/12/14 02:10:49;;;;;;;1999.90;999.90;;;7.90;99.90;;;;;;5025524;28;20046;-65
2021/12/14 02:13:30;;;;;;;1999.90;999.90;;;7.80;99.90;;;;;;5026056;28;20054;-65
2021/12/14 02:15:57;;;;;;;1999.90;999.90;;;7.90;99.90;;;;;;4988504;28;20057;-65
2021/12/14 02:18:29;;;;;;;1999.90;999.90;;;7.80;99.90;;;;;;5025872;28;20043;-65
2021/12/14 02:21:05;;;;;;;1999.90;999.90;;;7.80;99.90;;;;;;4993683;28;20436;-65
2021/12/14 02:23:31;;;;;;;1999.90;999.90;;;7.80;99.90;;;;;;4986423;28;20046;-65
2021/12/14 02:26:01;;;;;;;1999.90;999.90;;;7.80;99.90;;;;;;5024209;28;20038;-65
2021/12/14 02:28:27;;;;;;;1999.90;999.90;;;7.70;99.90;;;;;;4994335;28;20129;-65
2021/12/14 02:30:57;;;;;;;1999.90;999.90;;;7.70;99.90;;;;;;5025282;28;20082;-65
2021/12/14 02:33:29;;;;;;;1999.90;999.90;;;7.70;99.90;;;;;;4986032;28;20039;-65
2021/12/14 02:35:56;;;;;;;1999.90;999.90;;;7.70;99.90;;;;;;4993311;28;20065;-65
2021/12/14 02:38:22;;;;;;;1999.90;999.90;;;7.60;99.90;;;;;;5025730;28;20054;-65
2021/12/14 02:40:58;;;;;;;1999.90;999.90;;;7.70;99.90;;;;;;4994327;28;20046;-66
2021/12/14 02:43:36;;;;;;;1999.90;999.90;;;7.70;99.90;;;;;;5015168;28;20050;-65
2021/12/14 02:46:14;;;;;;;1999.90;999.90;;;7.70;99.90;;;;;;5009072;28;20436;-65
2021/12/14 02:48:43;;;;;;;1999.90;999.90;;;7.70;99.90;;;;;;4976629;28;20050;-65
2021/12/14 02:51:16;;;;;;;1999.90;999.90;;;7.80;99.90;;;;;;4989188;28;20081;-65
2021/12/14 02:53:47;;;;;;;1999.90;999.90;;;7.70;99.90;;;;;;4975128;28;20089;-65
2021/12/14 02:56:15;;;;;;;1999.90;999.90;;;7.70;99.90;;;;;;5005967;28;20046;-65
2021/12/14 02:58:42;;;;;;;1999.90;999.90;;;7.70;99.90;;;;;;4974022;28;20486;-65
2021/12/14 03:01:10;;;;;;;1999.90;999.90;;;7.60;99.90;;;;;;5005491;28;20078;-65
2021/12/14 03:03:35;;;;;;;1999.90;999.90;;;7.70;99.90;;;;;;5005610;28;20544;-64
2021/12/14 03:06:02;;;;;;;1999.90;999.90;;;7.70;99.90;;;;;;5004909;28;20038;-65
2021/12/14 03:08:33;;;;;;;1999.90;999.90;;;7.60;99.90;;;;;;5005625;28;20109;-65
2021/12/14 03:11:10;;;;;;;1999.90;999.90;;;7.60;99.90;;;;;;4956951;28;20250;-65
2021/12/14 03:13:48;;;;;;;1999.90;999.90;;;7.60;99.90;;;;;;4972679;28;20090;-66
2021/12/14 03:16:24;;;;;;;1999.90;999.90;;;7.60;99.90;;;;;;4985690;28;20046;-65
2021/12/14 03:18:52;;;;;;;1999.90;999.90;;;7.60;99.90;;;;;;5021449;28;20088;-66
2021/12/14 03:21:23;;;;;;;1999.90;999.90;;;7.60;99.90;;;;;;4988207;28;20161;-66
2021/12/14 03:23:58;;;;;;;1999.90;999.90;;;7.60;99.90;;;;;;4990982;28;20050;-65
2021/12/14 03:26:26;;;;;;;1999.90;999.90;;;7.60;99.90;;;;;;5019333;28;20117;-65
2021/12/14 03:29:00;;;;;;;1999.90;999.90;;;7.60;99.90;;;;;;4992943;28;20481;-65
2021/12/14 03:31:28;;;;;;;1999.90;999.90;;;7.70;99.90;;;;;;5024729;28;20070;-66
2021/12/14 03:34:00;;;;;;;1999.90;999.90;;;7.70;99.90;;;;;;5007327;28;20082;-65
2021/12/14 03:36:32;;;;;;;1999.90;999.90;;;7.70;99.90;;;;;;4988890;28;20109;-65
2021/12/14 03:39:08;;;;;;;1999.90;999.90;;;7.70;99.90;;;;;;5020069;28;20046;-65
2021/12/14 03:41:40;;;;;;;1999.90;999.90;;;7.70;99.90;;;;;;4991327;28;20042;-66
2021/12/14 03:44:15;;;;;;;1999.90;999.90;;;7.70;99.90;;;;;;4987685;28;20051;-65
2021/12/14 03:46:52;;;;;;;1999.90;999.90;;;7.70;99.90;;;;;;5021092;28;20124;-65
2021/12/14 03:49:23;;;;;;;1999.90;999.90;;;7.70;99.90;;;;;;4987674;28;20053;-65
2021/12/14 03:51:51;;;;;;;1999.90;999.90;;;7.70;99.90;;;;;;5024754;28;20057;-65
2021/12/14 03:54:19;;;;;;;1999.90;999.90;;;7.70;99.90;;;;;;5015572;28;20054;-66
2021/12/14 03:56:50;;;;;;;1999.90;999.90;;;7.70;99.90;;;;;;5024810;28;20461;-65
2021/12/14 03:59:18;;;;;;;1999.90;999.90;;;7.70;99.90;;;;;;4991561;28;20041;-65
2021/12/14 04:01:47;;;;;;;1999.90;999.90;;;7.70;99.90;;;;;;5021879;28;20059;-65
2021/12/14 04:04:20;;;;;;;1999.90;999.90;;;7.70;99.90;;;;;;4991778;28;20515;-65
2021/12/14 04:06:50;;;;;;;1999.90;999.90;;;7.70;99.90;;;;;;4991759;28;20038;-64
2021/12/14 04:09:18;;;;;;;1999.90;999.90;;;7.70;99.90;;;;;;4991100;28;20461;-65
2021/12/14 04:11:45;;;;;;;1999.90;999.90;;;7.60;99.90;;;;;;5005645;28;20105;-65
2021/12/14 04:14:12;;;;;;;1999.90;999.90;;;7.70;99.90;;;;;;5019580;28;20488;-65
2021/12/14 04:16:42;;;;;;;1999.90;999.90;;;7.70;99.90;;;;;;5023810;28;20049;-65
2021/12/14 04:19:13;;;;;;;1999.90;999.90;;;7.60;99.90;;;;;;5027703;28;20054;-65
2021/12/14 04:21:42;;;;;;;1999.90;999.90;;;7.70;99.90;;;;;;4976397;28;20564;-65
2021/12/14 04:24:13;;;;;;;1999.90;999.90;;;7.70;99.90;;;;;;5007707;28;20039;-65
2021/12/14 04:26:46;;;;;;;1999.90;999.90;;;7.70;99.90;;;;;;5008926;28;20055;-65
2021/12/14 04:29:15;;;;;;;1999.90;999.90;;;7.70;99.90;;;;;;5008405;28;20093;-65
2021/12/14 04:31:44;;;;;;;1999.90;999.90;;;7.60;99.90;;;;;;5008010;28;20054;-65
2021/12/14 04:34:10;;;;;;;1999.90;999.90;;;7.60;99.90;;;;;;4992344;28;20137;-65
2021/12/14 04:36:39;;;;;;;1999.90;999.90;;;7.60;99.90;;;;;;4991640;28;20110;-65
2021/12/14 04:39:34;;;;;;;1999.90;999.90;;;7.60;99.90;;;;;;5008077;28;20077;-65
2021/12/14 04:53:10;;;;;;;1999.90;999.90;;;7.60;99.90;;;;;;5008329;28;20051;-65
2021/12/14 04:55:38;;;;;;;1999.90;999.90;;;7.60;99.90;;;;;;4978821;28;20499;-65
2021/12/14 04:58:05;;;;;;;1999.90;999.90;;;7.60;99.90;;;;;;5010991;28;20073;-65
2021/12/14 05:00:38;;;;;;;1999.90;999.90;;;7.60;99.90;;;;;;5002707;28;20053;-65
2021/12/14 05:03:19;;;;;;;1999.90;999.90;;;7.60;99.90;;;;;;5014617;28;20046;-65
2021/12/14 05:05:49;;;;;;;1999.90;999.90;;;7.60;99.90;;;;;;4994318;28;20523;-64
2021/12/14 05:10:58;;;;;;;1999.90;999.90;;;7.60;99.90;;;;;;4992028;28;20133;-65
2021/12/14 05:13:27;;;;;;;1999.90;999.90;;;7.70;99.90;;;;;;4985112;28;20050;-65
2021/12/14 05:15:54;;;;;;;1999.90;999.90;;;7.70;99.90;;;;;;4978561;28;20057;-64
2021/12/14 05:18:20;;;;;;;1999.90;999.90;;;7.60;99.90;;;;;;5011493;28;20489;-65
2021/12/14 05:20:47;;;;;;;1999.90;999.90;;;7.60;99.90;;;;;;5010325;28;20129;-65
2021/12/14 05:23:22;;;;;;;1999.90;999.90;;;7.60;99.90;;;;;;4974836;28;20046;-65
2021/12/14 05:25:50;;;;;;;1999.90;999.90;;;7.70;99.90;;;;;;4990903;28;20043;-65
2021/12/14 05:28:19;;;;;;;1999.90;999.90;;;7.70;99.90;;;;;;4974636;28;20086;-65
2021/12/14 05:30:51;;;;;;;1999.90;999.90;;;7.70;99.90;;;;;;4969090;28;20480;-65
2021/12/14 05:33:27;;;;;;;1999.90;999.90;;;7.70;99.90;;;;;;5030080;28;20053;-65
2021/12/14 05:35:59;;;;;;;1999.90;999.90;;;7.70;99.90;;;;;;5014104;28;20053;-65
2021/12/14 05:38:44;;;;;;;1999.90;999.90;;;7.70;99.90;;;;;;5014014;28;20046;-65
2021/12/14 05:44:24;;;;;;;1999.90;999.90;;;7.70;99.90;;;;;;4991851;28;20054;-64
2021/12/14 05:46:58;;;;;;;1999.90;999.90;;;7.70;99.90;;;;;;4996626;28;20112;-64
2021/12/14 05:49:31;;;;;;;1999.90;999.90;;;7.70;99.90;;;;;;5013736;28;20559;-65
2021/12/14 05:52:08;;;;;;;1999.90;999.90;;;7.70;99.90;;;;;;5010642;28;20038;-65
2021/12/14 05:54:34;;;;;;;1999.90;999.90;;;7.70;99.90;;;;;;4977131;28;20046;-65
2021/12/14 05:57:05;;;;;;;1999.90;999.90;;;7.70;99.90;;;;;;5010559;28;20496;-65
2021/12/14 05:59:33;;;;;;;1999.90;999.90;;;7.70;99.90;;;;;;5010657;28;20038;-64
2021/12/14 06:02:03;;;;;;;1999.90;999.90;;;7.70;99.90;;;;;;5009027;28;20054;-65
2021/12/14 06:04:37;;;;;;;1999.90;999.90;;;7.70;99.90;;;;;;5010484;28;20101;-64
2021/12/14 06:07:07;;;;;;;1999.90;999.90;;;7.70;99.90;;;;;;5009716;28;20054;-65
2021/12/14 06:09:37;;;;;;;1999.90;999.90;;;7.70;99.90;;;;;;4976967;28;20089;-64
2021/12/14 06:12:16;;;;;;;1999.90;999.90;;;7.70;99.90;;;;;;4977787;28;20405;-65
2021/12/14 06:14:51;;;;;;;1999.90;999.90;;;7.70;99.90;;;;;;4977068;28;20049;-65
2021/12/14 06:17:29;;;;;;;1999.90;999.90;;;7.70;99.90;;;;;;5010352;28;20137;-65
2021/12/14 06:20:00;;;;;;;1999.90;999.90;;;7.80;99.90;;;;;;4993501;28;20397;-65
2021/12/14 06:22:26;;;;;;;1999.90;999.90;;;7.70;99.90;;;;;;5008997;28;20061;-65
2021/12/14 06:24:56;;;;;;;1999.90;999.90;;;7.70;99.90;;;;;;4979189;28;20046;-65
2021/12/14 06:27:28;;;;;;;1999.90;999.90;;;7.70;99.90;;;;;;4993242;28;20054;-65
2021/12/14 06:29:58;;;;;;;1999.90;999.90;;;7.70;99.90;;;;;;5015804;28;20669;-65
2021/12/14 06:32:31;;;;;;;1999.90;999.90;;;7.60;99.90;;;;;;5010142;28;20053;-65
2021/12/14 06:35:03;;;;;;;1999.90;999.90;;;7.60;99.90;;;;;;4996012;28;20033;-65
2021/12/14 06:40:04;;;;;;;1999.90;999.90;;;7.60;99.90;;;;;;5013509;28;20057;-65
2021/12/14 06:42:31;;;;;;;1999.90;999.90;;;7.60;99.90;;;;;;4981066;28;20077;-64
2021/12/14 06:45:06;;;;;;;1999.90;999.90;;;7.60;99.90;;;;;;5028248;28;20420;-64
2021/12/14 06:47:33;;;;;;;1999.90;999.90;;;7.60;99.90;;;;;;4996382;28;20512;-65
2021/12/14 06:50:02;;;;;;;1999.90;999.90;;;7.60;99.90;;;;;;4991421;28;20068;-65
2021/12/14 06:52:28;;;;;;;1999.90;999.90;;;7.60;99.90;;;;;;4988134;28;20121;-65
2021/12/14 06:55:23;;;;;;;1999.90;999.90;;;7.70;99.90;;;;;;5013247;28;20480;-65
2021/12/14 06:58:14;;;;;;;1999.90;999.90;;;7.70;99.90;;;;;;5012614;28;20056;-65
2021/12/14 07:00:45;;;;;;;1999.90;999.90;;;7.80;99.90;;;;;;4994449;28;20057;-64
2021/12/14 07:03:11;;;;;;;1999.90;999.90;;;7.70;99.90;;;;;;5024704;28;20393;-65
2021/12/14 07:05:42;;;;;;;1999.90;999.90;;;7.80;99.90;;;;;;5028481;28;20046;-65
2021/12/14 07:08:14;;;;;;;1999.90;999.90;;;7.70;99.90;;;;;;4990663;28;20058;-65
2021/12/14 07:10:42;;;;;;;1999.90;999.90;;;7.80;99.90;;;;;;5013175;28;20408;-65
2021/12/14 07:13:18;;;;;;;1999.90;999.90;;;7.80;99.90;;;;;;5012469;28;20053;-65
2021/12/14 07:15:44;;;;;;;1999.90;999.90;;;7.70;99.90;;;;;;5013298;28;20081;-64
2021/12/14 07:18:10;;;;;;;1999.90;999.90;;;7.80;99.90;;;;;;4995068;28;20050;-65
2021/12/14 07:20:39;;;;;;;1999.90;999.90;;;7.80;99.90;;;;;;4993988;28;20470;-65
2021/12/14 07:23:26;;;;;;;1999.90;999.90;;;7.90;99.90;;;;;;4993178;28;20501;-64
2021/12/14 07:26:03;;;;;;;1999.90;999.90;;;7.90;99.90;;;;;;4993111;28;20050;-64
2021/12/14 07:28:33;;;;;;;1999.90;999.90;;;7.80;99.90;;;;;;4993322;28;20560;-65
2021/12/14 07:31:02;;;;;;;1999.90;999.90;;;7.80;99.90;;;;;;4993869;28;20053;-65
2021/12/14 07:33:32;;;;;;;1999.90;999.90;;;7.80;99.90;;;;;;4992838;28;20038;-64
2021/12/14 07:36:05;;;;;;;1999.90;999.90;;;7.90;99.90;;;;;;4993215;28;20125;-65
2021/12/14 07:38:47;;;;;;;1999.90;999.90;;;7.90;99.90;;;;;;5011451;28;20052;-64
2021/12/14 07:41:13;;;;;;;1999.90;999.90;;;8.00;99.90;;;;;;5009285;28;20443;-64
2021/12/14 07:43:47;;;;;;;1999.90;999.90;;;8.00;99.90;;;;;;5011534;28;20147;-65
2021/12/14 07:46:17;;;;;;;1999.90;999.90;;;8.00;99.90;;;;;;5006399;28;20054;-64
2021/12/14 07:48:48;;;;;;;1999.90;999.90;;;8.00;99.90;;;;;;4991794;28;20057;-65
2021/12/14 07:51:16;;;;;;;1999.90;999.90;;;8.00;99.90;;;;;;4992792;28;20121;-65
2021/12/14 07:53:52;;;;;;;1999.90;999.90;;;7.90;99.90;;;;;;4992169;28;20046;-65
2021/12/14 07:56:27;;;;;;;1999.90;999.90;;;8.00;99.90;;;;;;4993335;28;20117;-65
2021/12/14 07:58:54;;;;;;;1999.90;999.90;;;8.10;99.90;;;;;;4997281;28;20128;-65
2021/12/14 08:01:20;;;;;;;1999.90;999.90;;;7.90;99.90;;;;;;5005608;28;20046;-65
2021/12/14 08:03:46;;;;;;;1999.90;999.90;;;7.90;99.90;;;;;;5012065;28;20050;-65
2021/12/14 08:06:14;;;;;;;1999.90;999.90;;;7.90;99.90;;;;;;5012234;28;20391;-65
2021/12/14 08:08:44;;;;;;;1999.90;999.90;;;7.90;99.90;;;;;;5009730;28;20065;-64
2021/12/14 08:11:29;;;;;;;1999.90;999.90;;;7.90;99.90;;;;;;4995967;28;20051;-64
2021/12/14 08:13:59;;;;;;;1999.90;999.90;;;7.90;99.90;;;;;;4975589;28;20046;-65
2021/12/14 08:16:25;;;;;;;1999.90;999.90;;;7.90;99.90;;;;;;4992711;28;20046;-64
2021/12/14 08:18:51;;;;;;;1999.90;999.90;;;7.90;99.90;;;;;;4999925;28;20045;-64
2021/12/14 08:21:22;;;;;;;1999.90;999.90;;;7.90;99.90;;;;;;4995047;28;20053;-64
2021/12/14 08:23:58;;;;;;;1999.90;999.90;;;7.90;99.90;;;;;;5000554;28;20082;-64
2021/12/14 08:26:26;;;;;;;1999.90;999.90;;;7.90;99.90;;;;;;4993242;28;20050;-64
2021/12/14 08:29:02;;;;;;;1999.90;999.90;;;8.00;99.90;;;;;;4999265;28;20054;-64
2021/12/14 08:31:35;;;;;;;1999.90;999.90;;;7.90;99.90;;;;;;5010184;28;20044;-64
2021/12/14 08:34:06;;;;;;;1999.90;999.90;;;7.90;99.90;;;;;;5008940;28;20057;-64
2021/12/14 08:36:36;;;;;;;1999.90;999.90;;;7.90;99.90;;;;;;5003952;28;20047;-64
2021/12/14 08:39:24;;;;;;;1999.90;999.90;;;7.90;99.90;;;;;;4992943;28;20117;-64
2021/12/14 08:41:58;;;;;;;1999.90;999.90;;;7.90;99.90;;;;;;5007897;28;20507;-64
2021/12/14 08:44:35;;;;;;;1999.90;999.90;;;7.90;99.90;;;;;;5007057;28;20053;-64
2021/12/14 08:47:05;;;;;;;1999.90;999.90;;;7.90;99.90;;;;;;4992994;28;20118;-64
2021/12/14 08:49:31;;;;;;;1999.90;999.90;;;7.90;99.90;;;;;;4992986;28;20481;-64
2021/12/14 08:51:57;;;;;;;1999.90;999.90;;;8.00;99.90;;;;;;4992275;28;20133;-64
2021/12/14 08:54:29;;;;;;;1999.90;999.90;;;8.00;99.90;;;;;;5000809;28;20400;-63
2021/12/14 08:57:00;;;;;;;1999.90;999.90;;;8.00;99.90;;;;;;5011859;28;20149;-64
2021/12/14 08:59:27;;;;;;;1999.90;999.90;;;8.00;99.90;;;;;;5011699;28;20488;-64
2021/12/14 09:01:54;;;;;;;1999.90;999.90;;;7.90;99.90;;;;;;5012228;28;20096;-64
2021/12/14 09:04:31;;;;;;;1999.90;999.90;;;8.00;99.90;;;;;;4996101;28;20065;-64
2021/12/14 09:07:02;;;;;;;1999.90;999.90;;;8.00;99.90;;;;;;4995894;28;20054;-64
2021/12/14 09:09:28;;;;;;;1999.90;999.90;;;8.00;99.90;;;;;;4996308;28;20065;-64
2021/12/14 09:12:07;;;;;;;1999.90;999.90;;;8.00;99.90;;;;;;4994922;28;20042;-64
2021/12/14 09:14:35;;;;;;;1999.90;999.90;;;8.00;99.90;;;;;;4996251;28;20050;-64
2021/12/14 09:17:04;;;;;;;1999.90;999.90;;;8.00;99.90;;;;;;4995175;28;20045;-64
2021/12/14 09:19:36;;;;;;;1999.90;999.90;;;8.00;99.90;;;;;;4995134;28;20043;-64
2021/12/14 09:22:07;;;;;;;1999.90;999.90;;;8.00;99.90;;;;;;4995609;28;20050;-64
2021/12/14 09:24:33;;;;;;;1999.90;999.90;;;8.00;99.90;;;;;;4996091;28;20469;-64
2021/12/14 09:27:04;;;;;;;1999.90;999.90;;;8.10;99.90;;;;;;4994934;28;20444;-64
2021/12/14 09:29:31;;;;;;;1999.90;999.90;;;8.00;99.90;;;;;;4995616;28;20046;-64
2021/12/14 09:32:00;;;;;;;1999.90;999.90;;;8.10;99.90;;;;;;4995239;28;20133;-64
2021/12/14 09:34:29;;;;;;;1999.90;999.90;;;8.10;99.90;;;;;;4995663;28;20129;-64
2021/12/14 09:36:56;;;;;;;1999.90;999.90;;;8.10;99.90;;;;;;4995717;28;20034;-64
2021/12/14 09:39:29;;;;;;;1999.90;999.90;;;8.00;99.90;;;;;;4994766;28;20050;-64
2021/12/14 09:41:58;;;;;;;1999.90;999.90;;;8.10;99.90;;;;;;4995482;28;20062;-64
2021/12/14 09:44:27;;;;;;;1999.90;999.90;;;8.10;99.90;;;;;;4989668;28;20551;-64
2021/12/14 09:46:59;;;;;;;1999.90;999.90;;;8.10;99.90;;;;;;4994840;28;20051;-64
2021/12/14 09:49:26;;;;;;;1999.90;999.90;;;8.10;99.90;;;;;;4994975;28;20042;-64
2021/12/14 09:51:56;;;;;;;1999.90;999.90;;;8.20;99.90;;;;;;4995642;28;20050;-65
2021/12/14 09:54:24;;;;;;;1999.90;999.90;;;8.10;99.90;;;;;;4994866;28;20108;-64
2021/12/14 09:57:07;;;;;;;1999.90;999.90;;;8.20;99.90;;;;;;4994839;28;20054;-64
2021/12/14 09:59:34;;;;;;;1999.90;999.90;;;8.20;99.90;;;;;;4993685;28;20073;-64
2021/12/14 10:02:05;;;;;;;1999.90;999.90;;;8.20;99.90;;;;;;4993709;28;20058;-64
2021/12/14 10:04:38;;;;;;;1999.90;999.90;;;8.20;99.90;;;;;;4994619;28;20064;-64
2021/12/14 10:07:08;;;;;;;1999.90;999.90;;;8.20;99.90;;;;;;4992725;28;20401;-64
2021/12/14 10:09:41;;;;;;;1999.90;999.90;;;8.20;99.90;;;;;;4994934;28;20049;-65
2021/12/14 10:12:48;;;;;;;1999.90;999.90;;;8.20;99.90;;;;;;4994776;28;20046;-64
2021/12/14 10:15:16;;;;;;;1999.90;999.90;;;8.20;99.90;;;;;;4989566;28;20042;-64
2021/12/14 10:17:43;;;;;;;1999.90;999.90;;;8.20;99.90;;;;;;4993762;28;20042;-64
2021/12/14 10:20:12;;;;;;;1999.90;999.90;;;8.30;99.90;;;;;;4994551;28;20120;-64
2021/12/14 10:22:38;;;;;;;1999.90;999.90;;;8.30;99.90;;;;;;4993175;28;20475;-64
2021/12/14 10:25:11;;;;;;;1999.90;999.90;;;8.30;99.90;;;;;;4994805;28;20506;-64
2021/12/14 10:27:38;;;;;;;1999.90;999.90;;;8.30;99.90;;;;;;4994081;28;20137;-64
2021/12/14 10:30:12;;;;;;;1999.90;999.90;;;8.40;99.90;;;;;;4993808;28;20061;-64
2021/12/14 10:32:39;;;;;;;1999.90;999.90;;;8.30;99.90;;;;;;4994488;28;20050;-64
2021/12/14 10:35:11;;;;;;;1999.90;999.90;;;8.30;99.90;;;;;;4992719;28;20560;-64
2021/12/14 10:37:52;;;;;;;;;;;8.30;99.90;;;;;;4995194;28;20042;-64
2021/12/14 10:43:16;;;;;;;1999.90;999.90;;;8.40;99.90;;;;;;4994834;28;20074;-64
2021/12/14 10:45:48;;;;;;;1999.90;999.90;;;8.50;99.90;;;;;;4994049;28;20430;-64
2021/12/14 10:48:15;;;;;;;1999.90;999.90;;;8.40;99.90;;;;;;4992473;28;20058;-64
2021/12/14 10:50:43;;;;;;;1999.90;999.90;;;8.40;99.90;;;;;;4989786;28;20039;-65
2021/12/14 10:53:11;;;;;;;1999.90;999.90;;;8.50;99.90;;;;;;4992824;28;20093;-64
2021/12/14 10:55:44;;;;;;;1999.90;999.90;;;8.40;99.90;;;;;;4994256;28;20060;-64
2021/12/14 10:58:14;;;;;;;1999.90;999.90;;;8.40;99.90;;;;;;4992439;28;20062;-64
2021/12/14 11:00:47;;;;;;;1999.90;999.90;;;8.40;99.90;;;;;;4995346;28;20060;-64
2021/12/14 11:03:18;;;;;;;1999.90;999.90;;;8.40;99.90;;;;;;5006982;28;20197;-64
2021/12/14 11:05:51;;;;;;;1999.90;999.90;;;8.40;99.90;;;;;;5013109;28;20050;-64
2021/12/14 11:08:38;;;;;;;1999.90;999.90;;;8.40;99.90;;;;;;4993643;28;20050;-63
2021/12/14 11:11:10;;;;;;;1999.90;999.90;;;8.40;99.90;;;;;;5009276;28;20120;-64
2021/12/14 11:13:41;;;;;;;1999.90;999.90;;;8.40;99.90;;;;;;5013163;28;20468;-64
2021/12/14 11:16:15;;;;;;;1999.90;999.90;;;8.40;99.90;;;;;;5011151;28;20058;-63
2021/12/14 11:18:44;;;;;;;1999.90;999.90;;;8.40;99.90;;;;;;4994336;28;20057;-64
2021/12/14 11:21:13;;;;;;;1999.90;999.90;;;8.50;99.90;;;;;;5013142;28;20065;-64
2021/12/14 11:23:43;;;;;;;1999.90;999.90;;;8.40;99.90;;;;;;5003371;28;20050;-64
2021/12/14 11:26:18;;;;;;;1999.90;999.90;;;8.40;99.90;;;;;;4992090;28;20116;-64
2021/12/14 11:28:52;;;;;;;1999.90;999.90;;;8.40;99.90;;;;;;4990270;28;20172;-64
2021/12/14 11:31:28;;;;;;;1999.90;999.90;;;8.50;99.90;;;;;;4976521;28;20477;-64
2021/12/14 11:34:00;;;;;;;1999.90;999.90;;;8.40;99.90;;;;;;5002663;28;20070;-64
2021/12/14 11:36:33;;;;;;;1999.90;999.90;;;8.40;99.90;;;;;;5002916;28;20042;-64
2021/12/14 11:39:02;;;;;;;1999.90;999.90;;;8.40;99.90;;;;;;4992523;28;20126;-64
2021/12/14 11:41:34;;;;;;;1999.90;999.90;;;8.50;99.90;;;;;;4993349;28;20050;-65
2021/12/14 11:44:07;;;;;;;1999.90;999.90;;;8.50;99.90;;;;;;4976339;28;20405;-64
2021/12/14 11:46:46;;;;;;;1999.90;999.90;;;8.40;99.90;;;;;;4992254;28;20294;-64
2021/12/14 11:49:12;;;;;;;1999.90;999.90;;;8.50;99.90;;;;;;4993092;28;20042;-64
2021/12/14 11:51:38;;;;;;;1999.90;999.90;;;8.50;99.90;;;;;;4993303;28;20046;-64
2021/12/14 11:54:04;;;;;;;1999.90;999.90;;;8.50;99.90;;;;;;4992627;28;20050;-64
2021/12/14 11:56:32;;;;;;;1999.90;999.90;;;8.50;99.90;;;;;;5007974;28;20076;-64
2021/12/14 11:59:03;;;;;;;1999.90;999.90;;;8.50;99.90;;;;;;4993639;28;20493;-64
2021/12/14 12:01:35;;;;;;;1999.90;999.90;;;8.50;99.90;;;;;;4992277;28;20108;-64
2021/12/14 12:04:12;;;;;;;1999.90;999.90;;;8.50;99.90;;;;;;4992946;28;20062;-64
2021/12/14 12:09:28;;;;;;;1999.90;999.90;;;8.50;99.90;;;;;;4992461;28;20054;-64
2021/12/14 12:09:41;;;;;;;1999.90;999.90;;;8.50;99.90;;;;;;4985643;28;20181;-64
2021/12/14 12:12:15;;;;;;;1999.90;999.90;;;8.40;99.90;;;;;;4993375;28;20067;-64
2021/12/14 12:14:54;;;;;;;1999.90;999.90;;;8.50;99.90;;;;;;4992415;28;20054;-64
2021/12/14 12:17:27;;;;;;;1999.90;999.90;;;8.50;99.90;;;;;;4992678;28;20081;-64
2021/12/14 12:20:02;;;;;;;1999.90;999.90;;;8.50;99.90;;;;;;4993419;28;20047;-64
2021/12/14 12:22:44;;;;;;;1999.90;999.90;;;8.40;99.90;;;;;;4992319;28;20050;-64
2021/12/14 12:25:15;;;;;;;1999.90;999.90;;;8.40;99.90;;;;;;4993011;28;20058;-64
2021/12/14 12:27:47;;;;;;;1999.90;999.90;;;8.40;99.90;;;;;;4992038;28;20054;-64
2021/12/14 12:30:36;;;;;;;1999.90;999.90;;;8.40;99.90;;;;;;4993190;28;20112;-65
2021/12/14 12:33:27;;;;;;;1999.90;999.90;;;8.40;99.90;;;;;;4992808;28;20469;-65
2021/12/14 12:36:10;;;;;;;1999.90;999.90;;;8.40;99.90;;;;;;4992096;28;20053;-65
2021/12/14 12:38:56;;;;;;;;;;;8.40;99.90;;;;;;4994864;28;20489;-64
2021/12/14 12:41:41;;;;;;;1999.90;999.90;;;8.40;99.90;;;;;;4996674;28;19929;-64
2021/12/14 12:44:13;;;;;;;1999.90;999.90;;;8.40;99.90;;;;;;4996493;28;20445;-64
2021/12/14 12:46:40;;;;;;;1999.90;999.90;;;8.50;99.90;;;;;;4996573;28;20066;-64
2021/12/14 12:49:17;;;;;;;1999.90;999.90;;;8.50;99.90;;;;;;4995694;28;20092;-64
2021/12/14 12:51:50;;;;;;;1999.90;999.90;;;8.50;99.90;;;;;;4996703;28;20129;-64
2021/12/14 12:54:19;;;;;;;1999.90;999.90;;;8.50;99.90;;;;;;4995911;28;20050;-64
2021/12/14 12:56:51;;;;;;;1999.90;999.90;;;8.50;99.90;;;;;;4995725;28;20042;-64
2021/12/14 12:59:41;;;;;;;1999.90;999.90;;;8.50;99.90;;;;;;4979261;28;20050;-64
2021/12/14 13:02:19;;;;;;;1999.90;999.90;;;8.50;99.90;;;;;;4995638;28;20137;-64